AirNav   Pilot Hours Calculator
 
 1046 users online  

83TE K Bar Ranch Airport
Sabinal, Texas, USA

GOING TO SABINAL?


FAA INFORMATION EFFECTIVE 30 DECEMBER 2021

Location

FAA Identifier: 83TE
Lat/Long: 29-29-48.8310N 099-29-38.1660W
29-29.813850N 099-29.636100W
29.4968975,-99.4939350
(estimated)
Elevation: 1208 ft. / 368 m (estimated)
Variation: 08E (1985)
From city: 10 miles N of SABINAL, TX
Time zone: UTC -6 (UTC -5 during Daylight Saving Time)
Zip code: 78881

Airport Operations

Airport use: Private use. Permission required prior to landing
Activation date: 10/1932
Control tower: no
ARTCC: HOUSTON CENTER
FSS: SAN ANGELO FLIGHT SERVICE STATION
Attendance: CONTINUOUS
Wind indicator: no
Segmented circle: no

Airport Communications

WX ASOS at HDO (18 nm SE): 119.675 (830-426-3060)

Nearby radio navigation aids

VOR radial/distance  VOR name  Freq  Var
CSIr202/29.4CENTER POINT VORTAC117.5008E

 
NDB name  Hdg/Dist  Freq  Var  ID
DEVINE300/36.135907EHHH .... .... ....
LA PRYOR020/38.922309ELKX .-.. -.- -..-

Airport Services

Parking: hangars
Airframe service: NONE
Powerplant service: NONE

Runway Information

Runway 15/33

Dimensions: 4100 x 150 ft. / 1250 x 46 m
Surface: dirt
Runway edge lights: low intensity
RUNWAY 15  RUNWAY 33
Traffic pattern: leftleft
Obstructions: treesnone

Airport Ownership and Management from official FAA records

Ownership: Privately-owned
Owner: MARY KAY KINDRED
3019 COLONY
SAN ANTONIO, TX 78230
Manager: Phone 512-966-3514
OR 512-696-5470.

Additional Remarks

E99 HGR ON E.SIDE OF RWY.
FOR CD CTC HOUSTON ARTCC AT 281-230-5622.

Instrument Procedures

There are no published instrument procedures at 83TE.

Some nearby airports with instrument procedures:

KHDO - South Texas Regional Airport at Hondo (18 nm SE)
KUVA - Garner Field Airport (22 nm SW)
KCVB - Castroville Municipal Airport (35 nm E)
KERV - Kerrville Municipal Airport/Louis Schreiner Field (36 nm NE)
23R - Devine Municipal Airport (36 nm SE)
 
Loc | Ops | Rwys | IFR | FBO | Links
Com | Nav | Svcs | Stats | Notes
Area around 83TE (K Bar Ranch Airport)
 
Road maps at: MapQuest Bing Google
 
Aerial photo
No photo
 
Sectional chart

 
Airport distance calculator
Flying to K Bar Ranch Airport? Find the distance to fly.

From to 83TE

Sunrise and sunset
Times for 26-Jan-2022
 Local
(UTC-6)
 Zulu
(UTC)
Morning civil twilight07:0613:06
Sunrise07:3213:32
Sunset18:1000:10
Evening civil twilight18:3500:35

Current date and time
Zulu (UTC)  27-Jan-2022 01:11:37
Local (UTC-6)  26-Jan-2022 19:11:37
 
METAR
KHDO 
19nm SE 
270051Z AUTO 11006KT 10SM OVC046 12/04 A3021 RMK AO2 SLP223 T01170044
KUVA 
22nm SW 
270055Z AUTO 09004KT OVC050 11/05 A3023 RMK AO2 T01140047 PWINO
KCVB 
35nm E 
270058Z AUTO 00000KT 10SM OVC048 13/04 A3023 RMK AO2
KERV 
36nm NE 
270055Z AUTO 11003KT 10SM OVC038 09/05 A3019 RMK AO2 T00940045
TAF
KSKF 
49nm E 
261800Z 2618/2724 07010G15KT 9999 FEW020 OVC035 QNH3020INS BECMG 2620/2621 08008KT 9999 BKN040 QNH3012INS BECMG 2715/2716 11007KT 9999 OVC050 QNH3017INS BECMG 2719/2720 07006KT 9999 OVC030 QNH3015INS TX14/2621Z TN07/2714Z
NOTAMs
Click for the latest NOTAMs
NOTAMs are issued by the DoD/FAA and will open in a separate window not controlled by AirNav.

 

 
 

Would you like to see your business listed on this page?

 If your business provides an interesting product or service to pilots, flight crews, aircraft, or users of the K Bar Ranch Airport, you should consider listing it here.  To start the listing process, click on the button below
 
Add a business
 

Other Pages about K Bar Ranch Airport

Update a link
 
Copyright © AirNav, LLC. All rights reserved. Privacy Policy  Contact